createdAt,value
2023-03-17T00:01:07.780Z,44.40
2023-03-17T00:04:13.431Z,43.81
2023-03-17T00:07:17.268Z,43.98
2023-03-17T00:10:25.334Z,44.88
2023-03-17T00:13:27.891Z,44.63
2023-03-17T00:16:32.787Z,44.63
2023-03-17T00:19:36.400Z,45.00
2023-03-17T00:22:39.942Z,45.49
2023-03-17T00:25:43.326Z,45.18
2023-03-17T00:28:45.569Z,45.79
2023-03-17T00:31:48.550Z,45.46
2023-03-17T00:34:52.194Z,45.63
2023-03-17T00:37:56.824Z,46.46
2023-03-17T00:40:58.880Z,46.23
2023-03-17T00:44:00.905Z,47.11
2023-03-17T00:47:02.920Z,47.67
2023-03-17T00:50:05.600Z,47.82
2023-03-17T00:53:12.789Z,47.27
2023-03-17T00:56:19.861Z,47.46
2023-03-17T00:59:33.684Z,47.37
2023-03-17T01:02:35.622Z,47.99
2023-03-17T01:05:38.706Z,47.59
2023-03-17T01:08:41.763Z,48.84
2023-03-17T01:11:44.361Z,48.17
2023-03-17T01:14:57.292Z,49.21
2023-03-17T01:18:00.111Z,48.57
2023-03-17T01:21:02.264Z,48.48
2023-03-17T01:24:04.620Z,48.95
2023-03-17T01:27:07.051Z,49.82
2023-03-17T01:30:18.152Z,50.33
2023-03-17T01:33:21.121Z,50.14
2023-03-17T01:36:22.962Z,50.59
2023-03-17T01:39:25.575Z,50.72
2023-03-17T01:42:29.618Z,50.95
2023-03-17T01:46:10.038Z,52.46
2023-03-17T01:49:18.194Z,52.96
2023-03-17T01:52:23.114Z,52.67
2023-03-17T01:55:24.969Z,54.26
2023-03-17T01:58:27.155Z,54.54
2023-03-17T02:01:33.710Z,54.29
2023-03-17T02:04:36.076Z,54.83
2023-03-17T02:07:38.604Z,54.62
2023-03-17T02:10:42.318Z,54.92
2023-03-17T02:13:45.064Z,54.47
2023-03-17T02:16:46.965Z,54.18
2023-03-17T02:19:49.885Z,53.38
2023-03-17T02:22:56.706Z,52.34
2023-03-17T02:25:58.788Z,52.74
2023-03-17T02:29:01.411Z,52.94
2023-03-17T02:32:04.399Z,52.94
2023-03-17T02:35:08.762Z,53.20
2023-03-17T02:38:10.921Z,54.04
2023-03-17T02:41:12.868Z,53.88
2023-03-17T02:44:14.747Z,53.95
2023-03-17T02:47:18.055Z,54.45
2023-03-17T02:50:26.689Z,54.40
2023-03-17T02:53:28.802Z,54.70
2023-03-17T02:56:31.465Z,54.76
2023-03-17T02:59:33.362Z,55.24
2023-03-17T03:02:35.122Z,55.30
2023-03-17T03:05:38.127Z,55.81
2023-03-17T03:08:39.979Z,56.22
2023-03-17T03:11:42.734Z,56.39
2023-03-17T03:14:44.711Z,56.76
2023-03-17T03:17:46.762Z,57.11
2023-03-17T03:20:48.655Z,57.33
2023-03-17T03:23:51.290Z,57.74
2023-03-17T03:26:53.023Z,57.53
2023-03-17T03:29:54.765Z,57.39
2023-03-17T03:32:56.830Z,57.99
2023-03-17T03:35:59.531Z,58.21
2023-03-17T03:39:02.192Z,57.98
2023-03-17T03:42:04.130Z,57.69
2023-03-17T03:45:06.490Z,57.93
2023-03-17T03:48:08.767Z,57.98
2023-03-17T03:51:10.975Z,58.19
2023-03-17T03:54:14.126Z,57.80
2023-03-17T03:57:16.000Z,58.19
2023-03-17T04:00:20.154Z,58.22
2023-03-17T04:03:22.342Z,58.18
2023-03-17T04:06:24.242Z,58.07
2023-03-17T04:09:26.222Z,58.39
2023-03-17T04:12:28.086Z,58.10
2023-03-17T04:15:30.136Z,57.67
2023-03-17T04:18:32.438Z,57.86
2023-03-17T04:21:34.757Z,57.83
2023-03-17T04:24:37.252Z,57.91
2023-03-17T04:27:39.089Z,57.40
2023-03-17T04:30:42.063Z,57.87
2023-03-17T04:33:44.890Z,58.07
2023-03-17T04:36:48.159Z,58.18
2023-03-17T04:39:50.588Z,58.12
2023-03-17T04:42:52.664Z,57.52
2023-03-17T04:45:54.610Z,57.46
2023-03-17T04:48:56.816Z,57.70
2023-03-17T04:51:58.678Z,57.86
2023-03-17T04:55:00.562Z,58.38
2023-03-17T04:58:02.272Z,58.08
2023-03-17T05:01:05.994Z,58.58
2023-03-17T05:04:08.127Z,58.99
2023-03-17T05:07:10.011Z,58.47
2023-03-17T05:10:12.633Z,58.72
2023-03-17T05:13:14.711Z,58.75
2023-03-17T05:16:16.949Z,58.75
2023-03-17T05:19:19.103Z,58.61
2023-03-17T05:22:21.255Z,58.45
2023-03-17T05:25:23.517Z,58.71
2023-03-17T05:28:25.514Z,58.84
2023-03-17T05:31:27.480Z,57.99
2023-03-17T05:34:29.431Z,58.04
2023-03-17T05:37:31.282Z,57.69
2023-03-17T05:40:33.276Z,57.81
2023-03-17T05:43:35.551Z,57.68
2023-03-17T05:46:37.414Z,57.34
2023-03-17T05:49:39.318Z,56.98
2023-03-17T05:52:41.964Z,57.14
2023-03-17T05:55:43.867Z,56.93
2023-03-17T05:58:45.704Z,56.34
2023-03-17T06:01:47.656Z,56.21
2023-03-17T06:04:49.658Z,56.52
2023-03-17T06:07:55.780Z,56.16
2023-03-17T06:10:58.237Z,56.22
2023-03-17T06:14:00.015Z,55.40
2023-03-17T06:17:02.770Z,54.80
2023-03-17T06:20:05.729Z,55.38
2023-03-17T06:23:07.909Z,53.95
2023-03-17T06:26:10.000Z,54.01
2023-03-17T06:29:12.731Z,47.38
2023-03-17T06:32:20.592Z,41.91
2023-03-17T06:35:23.430Z,46.02
2023-03-17T06:38:25.576Z,47.75
2023-03-17T06:41:28.143Z,49.18
2023-03-17T06:44:30.102Z,49.11
2023-03-17T06:47:32.133Z,48.62
2023-03-17T06:50:34.062Z,49.65
2023-03-17T06:53:36.425Z,48.51
2023-03-17T06:56:38.475Z,47.22
2023-03-17T06:59:40.713Z,42.39
2023-03-17T07:02:43.228Z,36.58
2023-03-17T07:05:45.121Z,38.16
2023-03-17T07:08:47.623Z,41.52
2023-03-17T08:06:12.557Z,43.17
2023-03-17T08:09:14.698Z,41.80
2023-03-17T08:12:17.028Z,41.47
2023-03-17T08:15:19.434Z,40.28
2023-03-17T08:18:28.255Z,39.72
2023-03-17T08:21:35.082Z,40.21
2023-03-17T08:24:51.758Z,40.21
2023-03-17T08:28:24.133Z,39.00
2023-03-17T08:31:34.067Z,36.68
2023-03-17T08:34:37.909Z,36.82
2023-03-17T08:37:51.622Z,36.57
2023-03-17T08:41:01.645Z,35.22
2023-03-17T08:44:06.735Z,36.64
2023-03-17T08:47:15.093Z,35.45
2023-03-17T09:23:18.331Z,32.68
2023-03-17T09:26:53.549Z,31.56
2023-03-17T09:30:17.138Z,32.27
2023-03-17T09:34:00.453Z,32.56
2023-03-17T09:41:45.975Z,31.57
2023-03-17T09:50:23.753Z,31.24
2023-03-17T09:53:49.868Z,32.75
2023-03-17T09:57:23.080Z,31.81
2023-03-17T10:00:44.687Z,32.91
2023-03-17T10:08:32.330Z,32.44
2023-03-17T10:12:31.924Z,32.53
2023-03-17T11:40:32.365Z,27.80
2023-03-17T11:45:04.829Z,27.90
2023-03-17T11:57:44.740Z,27.57
2023-03-17T12:01:15.935Z,27.62
2023-03-17T12:04:29.089Z,27.95
2023-03-17T12:08:52.359Z,28.20
2023-03-17T12:18:44.363Z,27.72
2023-03-17T12:26:48.713Z,26.11
2023-03-17T12:31:16.457Z,27.64
2023-03-17T12:35:06.572Z,26.49
2023-03-17T12:39:05.782Z,27.76
2023-03-17T12:44:03.781Z,27.50
2023-03-17T12:51:20.615Z,27.00
2023-03-17T12:59:25.483Z,27.25
2023-03-17T13:09:43.392Z,27.20
2023-03-17T13:25:53.987Z,27.56
2023-03-17T13:29:13.954Z,28.06
2023-03-17T13:32:28.302Z,27.28
2023-03-17T13:36:17.217Z,27.20
2023-03-17T13:40:01.069Z,28.09
2023-03-17T13:44:05.898Z,28.09
2023-03-17T13:47:28.713Z,28.13
2023-03-17T13:50:38.510Z,28.85
2023-03-17T13:54:12.527Z,29.21
2023-03-17T13:57:38.999Z,28.76
2023-03-17T14:01:21.660Z,28.55
2023-03-17T14:04:52.941Z,28.17
2023-03-17T14:08:01.864Z,28.00
2023-03-17T14:11:24.022Z,28.26
2023-03-17T14:14:40.354Z,28.20
2023-03-17T14:17:55.577Z,28.53
2023-03-17T14:21:11.771Z,29.27
2023-03-17T14:24:23.871Z,29.05
2023-03-17T14:27:42.832Z,28.87
2023-03-17T14:31:01.306Z,28.99
2023-03-17T14:34:05.126Z,29.62
2023-03-17T14:37:12.604Z,27.93
2023-03-17T14:40:37.191Z,28.16
2023-03-17T14:43:39.162Z,28.87
2023-03-17T14:46:46.434Z,28.77
2023-03-17T14:49:50.749Z,28.40
2023-03-17T14:52:53.728Z,28.12
2023-03-17T14:55:56.548Z,28.27
2023-03-17T14:59:06.504Z,28.33
2023-03-17T15:02:33.209Z,28.84
2023-03-17T15:05:37.829Z,28.34
2023-03-17T15:08:43.484Z,28.84
2023-03-17T15:11:46.144Z,28.77
2023-03-17T15:14:53.167Z,29.08
2023-03-17T15:17:58.608Z,29.51
2023-03-17T15:21:01.267Z,29.08
2023-03-17T15:24:22.168Z,28.85
2023-03-17T15:27:24.538Z,29.51
2023-03-17T15:30:37.452Z,29.98
2023-03-17T15:33:48.042Z,30.32
2023-03-17T15:36:50.106Z,31.02
2023-03-17T15:39:57.503Z,31.30
2023-03-17T15:43:00.688Z,30.24
2023-03-17T15:46:06.766Z,30.83
2023-03-17T15:49:13.044Z,30.15
2023-03-17T15:52:28.090Z,31.31
2023-03-17T15:55:31.492Z,31.01
2023-03-17T15:58:33.693Z,31.13
2023-03-17T16:01:39.077Z,31.29
2023-03-17T16:04:41.278Z,31.60
2023-03-17T16:07:44.089Z,31.75
2023-03-17T16:10:46.960Z,31.89
2023-03-17T16:13:49.089Z,32.37
2023-03-17T16:16:53.164Z,32.46
2023-03-17T16:19:57.710Z,32.49
2023-03-17T16:23:27.227Z,32.80
2023-03-17T16:26:29.319Z,32.41
2023-03-17T16:29:31.308Z,32.48
2023-03-17T16:32:33.548Z,32.43
2023-03-17T16:35:35.866Z,32.75
2023-03-17T16:38:41.383Z,32.71
2023-03-17T16:41:48.762Z,33.96
2023-03-17T16:44:51.198Z,34.05
2023-03-17T16:47:54.345Z,32.92
2023-03-17T16:50:57.744Z,33.29
2023-03-17T16:53:59.734Z,33.50
2023-03-17T16:57:01.787Z,34.00
2023-03-17T17:00:08.322Z,33.75
2023-03-17T17:03:10.671Z,34.10
2023-03-17T17:06:14.494Z,34.02
2023-03-17T17:09:16.910Z,33.93
2023-03-17T17:12:19.258Z,34.11
2023-03-17T17:15:26.080Z,34.38
2023-03-17T17:18:29.118Z,34.39
2023-03-17T17:21:32.887Z,34.25
2023-03-17T17:24:35.418Z,34.45
2023-03-17T17:27:42.248Z,34.90
2023-03-17T17:30:47.993Z,34.52
2023-03-17T17:33:50.242Z,34.60
2023-03-17T17:36:53.038Z,34.79
2023-03-17T17:39:55.534Z,34.99
2023-03-17T17:42:58.314Z,35.01
2023-03-17T17:46:02.532Z,35.21
2023-03-17T17:49:06.008Z,35.85
2023-03-17T17:52:08.264Z,36.10
2023-03-17T17:55:15.877Z,36.23
2023-03-17T17:58:21.562Z,36.04
2023-03-17T18:01:23.968Z,36.93
2023-03-17T18:04:26.451Z,36.63
2023-03-17T18:07:28.645Z,37.33
2023-03-17T18:10:32.221Z,37.32
2023-03-17T18:13:36.262Z,37.65
2023-03-17T18:16:38.733Z,37.91
2023-03-17T18:19:41.219Z,37.81
2023-03-17T18:22:43.734Z,37.80
2023-03-17T18:25:46.472Z,37.95
2023-03-17T18:28:49.573Z,38.60
2023-03-17T18:31:54.840Z,38.99
2023-03-17T18:35:02.893Z,38.46
2023-03-17T18:38:05.703Z,38.73
2023-03-17T18:41:08.385Z,38.86
2023-03-17T18:44:19.998Z,39.13
2023-03-17T18:47:22.469Z,39.07
2023-03-17T18:50:26.647Z,39.41
2023-03-17T18:53:30.928Z,38.90
2023-03-17T18:56:32.998Z,39.67
2023-03-17T18:59:35.630Z,39.36
2023-03-17T19:02:38.177Z,39.45
2023-03-17T19:05:41.037Z,39.39
2023-03-17T19:08:47.319Z,39.69
2023-03-17T19:11:49.652Z,39.24
2023-03-17T19:14:52.348Z,39.67
2023-03-17T19:17:54.652Z,39.84
2023-03-17T19:20:57.047Z,40.54
2023-03-17T19:24:01.813Z,40.01
2023-03-17T19:27:05.712Z,39.40
2023-03-17T19:30:08.972Z,39.29
2023-03-17T19:33:15.993Z,40.05
2023-03-17T19:36:18.483Z,39.88
2023-03-17T19:39:21.713Z,40.33
2023-03-17T19:42:26.166Z,40.76
2023-03-17T19:45:29.105Z,40.66
2023-03-17T19:48:32.198Z,40.42
2023-03-17T19:51:34.608Z,40.74
2023-03-17T19:54:44.840Z,40.34
2023-03-17T19:57:48.253Z,40.89
2023-03-17T20:00:51.605Z,40.75
2023-03-17T20:03:57.005Z,40.83
2023-03-17T20:06:59.324Z,40.23
2023-03-17T20:10:02.006Z,40.44
2023-03-17T20:13:04.331Z,40.10
2023-03-17T20:16:07.768Z,41.18
2023-03-17T20:19:10.091Z,41.22
2023-03-17T20:22:13.160Z,40.43
2023-03-17T20:25:16.282Z,41.27
2023-03-17T20:28:20.074Z,41.13
2023-03-17T20:31:22.867Z,40.31
2023-03-17T20:34:26.019Z,40.77
2023-03-17T20:37:28.352Z,40.55
2023-03-17T20:40:30.776Z,40.82
2023-03-17T20:43:36.279Z,40.66
2023-03-17T20:46:39.162Z,41.19
2023-03-17T20:49:42.767Z,40.88
2023-03-17T20:52:44.972Z,41.30
2023-03-17T20:55:47.764Z,40.96
2023-03-17T20:58:51.007Z,41.07
2023-03-17T21:01:54.613Z,41.26
2023-03-17T21:04:56.975Z,41.73
2023-03-17T21:07:59.091Z,41.26
2023-03-17T21:11:02.923Z,41.02
2023-03-17T21:14:08.113Z,41.14
2023-03-17T21:17:11.572Z,41.89
2023-03-17T21:20:14.802Z,41.56
2023-03-17T21:23:17.155Z,41.83
2023-03-17T21:26:19.654Z,41.55
2023-03-17T21:29:32.272Z,41.64
2023-03-17T21:33:20.074Z,42.02
2023-03-17T21:36:22.074Z,41.90
2023-03-17T21:39:26.115Z,42.05
2023-03-17T21:42:29.677Z,41.35
2023-03-17T21:45:34.856Z,42.28
2023-03-17T21:48:38.013Z,41.13
2023-03-17T21:51:39.928Z,41.45
2023-03-17T21:54:42.642Z,41.83
2023-03-17T21:57:44.664Z,41.71
2023-03-17T22:00:47.293Z,41.33
2023-03-17T22:03:51.112Z,41.59
2023-03-17T22:06:53.997Z,42.81
2023-03-17T22:09:57.889Z,42.78
2023-03-17T22:13:00.054Z,43.21
2023-03-17T22:16:02.744Z,42.95
2023-03-17T22:19:04.923Z,42.99
2023-03-17T22:22:07.001Z,43.41
2023-03-17T22:25:09.058Z,43.91
2023-03-17T22:28:11.044Z,43.73
2023-03-17T22:31:17.788Z,43.79
2023-03-17T22:34:20.314Z,43.45
2023-03-17T22:37:22.306Z,44.12
2023-03-17T22:40:24.621Z,44.15
2023-03-17T22:43:27.666Z,44.11
2023-03-17T22:46:29.721Z,44.23
2023-03-17T22:49:32.168Z,44.48
2023-03-17T22:52:34.149Z,44.85
2023-03-17T22:57:14.478Z,44.99
2023-03-17T23:04:31.858Z,44.21
2023-03-17T23:07:47.900Z,44.52
2023-03-17T23:10:53.649Z,44.98
2023-03-17T23:13:55.852Z,44.34
2023-03-17T23:16:57.990Z,44.49
2023-03-17T23:20:00.008Z,44.89
2023-03-17T23:23:02.247Z,45.29
2023-03-17T23:26:06.063Z,45.69
2023-03-17T23:29:09.306Z,44.70
2023-03-17T23:32:12.440Z,44.85
2023-03-17T23:35:14.668Z,44.55
2023-03-17T23:38:19.585Z,44.34
2023-03-17T23:41:21.769Z,43.96
2023-03-17T23:44:24.541Z,43.54
2023-03-17T23:47:27.135Z,44.11
2023-03-17T23:50:29.542Z,42.87
2023-03-17T23:53:33.366Z,42.43
2023-03-17T23:56:35.639Z,42.40
2023-03-17T23:59:37.596Z,42.90
